createdAt,value
2022-10-09T00:00:49.989Z,94.13
2022-10-09T00:03:17.740Z,95.46
2022-10-09T00:05:45.085Z,95.35
2022-10-09T00:08:11.732Z,94.70
2022-10-09T00:10:44.867Z,94.50
2022-10-09T00:13:12.205Z,94.80
2022-10-09T00:15:43.965Z,94.34
2022-10-09T00:18:12.754Z,94.98
2022-10-09T00:20:41.535Z,94.63
2022-10-09T00:23:08.609Z,96.46
2022-10-09T00:25:38.524Z,96.55
2022-10-09T00:28:06.203Z,95.91
2022-10-09T00:30:32.820Z,95.45
2022-10-09T00:32:59.340Z,95.23
2022-10-09T00:35:25.914Z,95.27
2022-10-09T00:37:52.454Z,94.88
2022-10-09T00:40:19.006Z,94.85
2022-10-09T00:42:45.773Z,94.56
2022-10-09T00:45:22.226Z,94.31
2022-10-09T00:47:51.776Z,94.14
2022-10-09T00:50:41.400Z,94.41
2022-10-09T00:53:09.365Z,93.58
2022-10-09T00:55:37.312Z,95.82
2022-10-09T00:58:04.428Z,94.95
2022-10-09T01:00:31.189Z,94.60
2022-10-09T01:02:57.708Z,94.89
2022-10-09T01:06:00.566Z,94.14
2022-10-09T01:08:45.388Z,94.18
2022-10-09T01:11:26.536Z,93.50
2022-10-09T01:14:00.102Z,94.03
2022-10-09T01:16:55.353Z,94.84
2022-10-09T01:19:46.900Z,94.85
2022-10-09T01:22:13.332Z,94.68
2022-10-09T01:24:51.271Z,94.19
2022-10-09T01:27:23.138Z,93.81
2022-10-09T01:29:55.798Z,95.20
2022-10-09T01:32:28.844Z,95.48
2022-10-09T01:34:56.568Z,94.43
2022-10-09T01:37:24.024Z,95.36
2022-10-09T01:39:52.112Z,95.89
2022-10-09T01:42:21.236Z,95.66
2022-10-09T01:44:47.787Z,95.47
2022-10-09T01:47:20.279Z,95.38
2022-10-09T01:49:49.528Z,95.17
2022-10-09T01:52:53.774Z,94.67
2022-10-09T01:56:02.496Z,95.01
2022-10-09T01:58:53.229Z,95.71
2022-10-09T02:01:26.960Z,96.39
2022-10-09T02:03:56.094Z,96.77
2022-10-09T02:06:23.329Z,97.25
2022-10-09T02:08:52.723Z,96.92
2022-10-09T02:11:19.687Z,96.67
2022-10-09T02:13:49.452Z,96.15
2022-10-09T02:16:38.994Z,96.73
2022-10-09T02:19:13.781Z,96.74
2022-10-09T02:21:55.383Z,96.92
2022-10-09T02:24:23.784Z,96.83
2022-10-09T02:26:53.176Z,96.27
2022-10-09T02:29:20.340Z,96.47
2022-10-09T02:31:47.050Z,96.03
2022-10-09T02:34:17.715Z,95.98
2022-10-09T02:36:44.341Z,96.17
2022-10-09T02:39:10.977Z,97.24
2022-10-09T02:41:37.947Z,97.72
2022-10-09T02:44:06.057Z,97.43
2022-10-09T02:46:33.432Z,98.30
2022-10-09T02:49:00.196Z,98.57
2022-10-09T02:51:26.923Z,98.00
2022-10-09T02:53:54.217Z,97.86
2022-10-09T02:56:22.154Z,100.00
2022-10-09T02:58:49.353Z,100.00
2022-10-09T03:01:15.924Z,100.00
2022-10-09T03:03:42.546Z,100.00
2022-10-09T03:06:11.885Z,100.00
2022-10-09T03:08:40.598Z,100.00
2022-10-09T03:11:07.317Z,99.51
2022-10-09T03:13:33.934Z,99.35
2022-10-09T03:16:05.392Z,98.98
2022-10-09T03:18:32.413Z,97.80
2022-10-09T03:20:59.003Z,98.04
2022-10-09T03:23:26.486Z,97.84
2022-10-09T03:25:57.586Z,97.35
2022-10-09T03:28:24.575Z,97.55
2022-10-09T03:30:51.542Z,97.03
2022-10-09T03:33:18.526Z,97.10
2022-10-09T03:35:49.727Z,96.93
2022-10-09T03:38:16.718Z,97.53
2022-10-09T03:40:43.457Z,97.46
2022-10-09T03:43:10.076Z,97.70
2022-10-09T03:45:44.279Z,97.07
2022-10-09T03:48:13.273Z,100.00
2022-10-09T03:50:41.215Z,100.00
2022-10-09T03:53:09.985Z,100.00
2022-10-09T03:55:36.554Z,100.00
2022-10-09T03:58:03.168Z,100.00
2022-10-09T04:00:29.879Z,100.00
2022-10-09T04:02:56.499Z,100.00
2022-10-09T04:05:23.070Z,99.53
2022-10-09T04:07:49.738Z,99.46
2022-10-09T04:10:16.422Z,99.36
2022-10-09T04:12:42.982Z,99.40
2022-10-09T04:15:10.526Z,99.49
2022-10-09T04:17:37.428Z,98.35
2022-10-09T04:20:04.300Z,97.98
2022-10-09T04:22:30.930Z,97.89
2022-10-09T04:24:57.465Z,98.21
2022-10-09T04:27:24.007Z,98.30
2022-10-09T04:29:50.510Z,100.00
2022-10-09T04:32:17.069Z,100.00
2022-10-09T04:34:43.652Z,99.81
2022-10-09T04:37:10.158Z,99.54
2022-10-09T04:39:36.660Z,98.98
2022-10-09T04:42:03.203Z,98.48
2022-10-09T04:44:29.773Z,98.42
2022-10-09T04:46:56.302Z,97.77
2022-10-09T04:49:22.795Z,98.11
2022-10-09T04:51:49.348Z,97.58
2022-10-09T04:54:16.140Z,97.38
2022-10-09T04:56:42.698Z,97.50
2022-10-09T04:59:09.212Z,97.50
2022-10-09T05:01:38.320Z,97.14
2022-10-09T05:04:05.677Z,96.92
2022-10-09T05:06:32.362Z,96.88
2022-10-09T05:08:58.870Z,97.41
2022-10-09T05:11:25.904Z,97.39
2022-10-09T05:13:55.450Z,96.85
2022-10-09T05:16:27.440Z,97.22
2022-10-09T05:18:56.311Z,96.63
2022-10-09T05:21:23.606Z,96.17
2022-10-09T05:23:50.722Z,96.00
2022-10-09T05:26:19.157Z,96.09
2022-10-09T05:28:46.454Z,97.35
2022-10-09T05:31:22.003Z,96.91
2022-10-09T05:33:49.276Z,98.57
2022-10-09T05:36:16.711Z,98.34
2022-10-09T05:38:43.834Z,98.61
2022-10-09T05:41:15.207Z,98.03
2022-10-09T05:43:44.842Z,97.47
2022-10-09T05:46:12.489Z,97.43
2022-10-09T05:48:41.236Z,96.96
2022-10-09T05:51:16.645Z,96.45
2022-10-09T05:53:45.141Z,96.67
2022-10-09T05:56:16.881Z,96.01
2022-10-09T05:58:44.230Z,96.19
2022-10-09T06:01:11.058Z,96.35
2022-10-09T06:03:38.488Z,96.83
2022-10-09T06:06:06.893Z,96.66
2022-10-09T06:08:38.235Z,97.92
2022-10-09T06:11:14.284Z,98.17
2022-10-09T06:13:41.960Z,98.08
2022-10-09T06:16:09.041Z,98.03
2022-10-09T06:18:35.537Z,98.13
2022-10-09T06:21:02.964Z,98.16
2022-10-09T06:23:30.105Z,97.74
2022-10-09T06:26:00.660Z,97.76
2022-10-09T06:28:31.795Z,97.10
2022-10-09T06:31:05.749Z,97.12
2022-10-09T06:33:33.936Z,99.24
2022-10-09T06:36:10.371Z,98.47
2022-10-09T06:38:38.288Z,98.69
2022-10-09T06:41:12.886Z,99.49
2022-10-09T06:43:40.854Z,99.18
2022-10-09T06:46:10.635Z,100.00
2022-10-09T06:48:38.721Z,100.00
2022-10-09T06:51:11.159Z,100.00
2022-10-09T06:53:39.739Z,100.00
2022-10-09T06:56:07.106Z,100.00
2022-10-09T06:58:33.726Z,100.00
2022-10-09T07:01:17.549Z,100.00
2022-10-09T07:03:47.012Z,100.00
2022-10-09T07:06:16.548Z,100.00
2022-10-09T07:08:45.925Z,100.00
2022-10-09T07:11:22.691Z,100.00
2022-10-09T07:13:51.888Z,100.00
2022-10-09T07:16:24.381Z,100.00
2022-10-09T07:18:51.075Z,100.00
2022-10-09T07:21:17.857Z,100.00
2022-10-09T07:23:44.463Z,100.00
2022-10-09T07:26:23.894Z,100.00
2022-10-09T07:28:51.410Z,100.00
2022-10-09T07:31:18.036Z,100.00
2022-10-09T07:33:48.331Z,100.00
2022-10-09T07:36:14.919Z,100.00
2022-10-09T07:38:41.599Z,100.00
2022-10-09T07:41:10.554Z,100.00
2022-10-09T07:43:38.789Z,100.00
2022-10-09T07:46:07.280Z,100.00
2022-10-09T07:48:35.217Z,100.00
2022-10-09T07:51:23.418Z,100.00
2022-10-09T07:53:50.629Z,100.00
2022-10-09T07:56:22.630Z,100.00
2022-10-09T07:58:50.793Z,100.00
2022-10-09T08:01:20.050Z,100.00
2022-10-09T08:03:47.436Z,100.00
2022-10-09T08:06:14.032Z,100.00
2022-10-09T08:08:40.697Z,100.00
2022-10-09T08:11:12.845Z,100.00
2022-10-09T08:13:39.801Z,100.00
2022-10-09T08:16:07.084Z,100.00
2022-10-09T08:18:34.320Z,99.94
2022-10-09T08:21:06.572Z,99.07
2022-10-09T08:23:33.626Z,100.00
2022-10-09T08:26:00.829Z,100.00
2022-10-09T08:28:27.422Z,98.73
2022-10-09T08:30:54.162Z,98.61
2022-10-09T08:33:23.240Z,96.66
2022-10-09T08:35:50.073Z,96.54
2022-10-09T08:38:37.625Z,98.55
2022-10-09T08:41:13.950Z,97.88
2022-10-09T08:43:45.471Z,98.02
2022-10-09T08:46:29.397Z,97.53
2022-10-09T08:48:56.230Z,97.61
2022-10-09T08:51:29.617Z,96.30
2022-10-09T08:54:04.433Z,95.50
2022-10-09T08:56:33.271Z,96.09
2022-10-09T08:59:01.549Z,95.15
2022-10-09T09:01:51.099Z,94.33
2022-10-09T09:04:29.780Z,93.92
2022-10-09T09:07:21.083Z,92.89
2022-10-09T09:10:14.143Z,93.28
2022-10-09T09:13:31.412Z,92.60
2022-10-09T09:16:20.379Z,92.46
2022-10-09T09:19:32.042Z,90.53
2022-10-09T09:21:59.014Z,90.53
2022-10-09T09:24:40.370Z,88.19
2022-10-09T09:27:19.184Z,87.60
2022-10-09T09:29:54.760Z,87.77
2022-10-09T09:32:24.005Z,87.73
2022-10-09T09:34:52.723Z,84.79
2022-10-09T09:37:19.252Z,84.04
2022-10-09T09:42:32.400Z,82.01
2022-10-09T09:45:07.755Z,82.63
2022-10-09T09:47:47.606Z,82.96
2022-10-09T09:50:34.943Z,82.56
2022-10-09T09:53:05.188Z,80.38
2022-10-09T09:55:33.420Z,78.72
2022-10-09T09:58:06.683Z,79.26
2022-10-09T10:00:34.421Z,79.13
2022-10-09T10:03:19.929Z,77.69
2022-10-09T10:05:46.554Z,77.58
2022-10-09T10:08:29.190Z,76.10
2022-10-09T10:10:58.810Z,76.34
2022-10-09T10:13:37.382Z,75.89
2022-10-09T10:16:07.083Z,74.90
2022-10-09T10:18:41.033Z,76.13
2022-10-09T10:21:16.478Z,75.25
2022-10-09T10:23:52.253Z,72.45
2022-10-09T10:26:21.900Z,72.22
2022-10-09T10:29:08.208Z,71.64
2022-10-09T10:31:56.381Z,70.22
2022-10-09T10:34:50.644Z,70.86
2022-10-09T10:37:25.262Z,73.06
2022-10-09T10:40:03.012Z,70.61
2022-10-09T10:42:44.814Z,73.25
2022-10-09T10:45:50.171Z,70.49
2022-10-09T10:48:25.641Z,71.57
2022-10-09T10:51:02.871Z,70.96
2022-10-09T10:53:32.238Z,68.39
2022-10-09T10:56:05.475Z,68.31
2022-10-09T10:58:38.159Z,66.51
2022-10-09T11:01:38.815Z,66.69
2022-10-09T11:04:24.108Z,66.17
2022-10-09T11:07:07.730Z,68.56
2022-10-09T11:09:57.542Z,67.04
2022-10-09T11:12:47.917Z,62.78
2022-10-09T11:15:37.738Z,63.73
2022-10-09T11:18:34.630Z,62.20
2022-10-09T11:21:17.382Z,65.20
2022-10-09T11:24:06.434Z,62.49
2022-10-09T11:26:49.148Z,62.64
2022-10-09T11:29:21.749Z,60.66
2022-10-09T11:31:54.206Z,56.04
2022-10-09T11:34:44.454Z,61.65
2022-10-09T11:37:23.544Z,61.48
2022-10-09T11:39:50.095Z,62.21
2022-10-09T11:42:21.847Z,55.27
2022-10-09T11:45:19.483Z,53.13
2022-10-09T11:47:55.302Z,54.65
2022-10-09T11:50:25.468Z,54.13
2022-10-09T11:53:08.996Z,53.37
2022-10-09T11:55:36.599Z,51.60
2022-10-09T11:58:25.282Z,49.63
2022-10-09T12:00:55.324Z,53.84
2022-10-09T12:03:24.659Z,51.26
2022-10-09T12:05:51.434Z,50.19
2022-10-09T12:08:30.824Z,51.01
2022-10-09T12:11:07.164Z,52.44
2022-10-09T12:13:38.801Z,53.14
2022-10-09T12:16:28.151Z,50.71
2022-10-09T12:18:55.344Z,51.00
2022-10-09T12:21:28.779Z,49.83
2022-10-09T12:23:55.725Z,51.02
2022-10-09T12:26:24.964Z,49.76
2022-10-09T12:28:55.830Z,50.99
2022-10-09T12:31:27.780Z,50.13
2022-10-09T12:34:02.920Z,50.10
2022-10-09T12:36:31.478Z,49.63
2022-10-09T12:39:11.328Z,49.78
2022-10-09T12:41:38.069Z,49.03
2022-10-09T12:44:15.464Z,47.87
2022-10-09T12:46:42.029Z,45.75
2022-10-09T12:49:19.042Z,45.43
2022-10-09T12:51:56.363Z,46.51
2022-10-09T12:54:27.225Z,47.62
2022-10-09T12:56:56.824Z,46.70
2022-10-09T12:59:27.051Z,45.92
2022-10-09T13:01:57.649Z,48.89
2022-10-09T13:04:27.696Z,47.92
2022-10-09T13:06:55.270Z,47.80
2022-10-09T13:09:26.655Z,45.51
2022-10-09T13:12:00.261Z,45.80
2022-10-09T13:14:34.152Z,45.78
2022-10-09T13:17:01.482Z,47.56
2022-10-09T13:19:31.826Z,48.35
2022-10-09T13:22:19.226Z,45.87
2022-10-09T13:24:47.116Z,45.06
2022-10-09T13:27:19.353Z,47.78
2022-10-09T13:29:47.629Z,45.52
2022-10-09T13:32:16.341Z,44.87
2022-10-09T13:34:43.539Z,46.49
2022-10-09T13:37:14.305Z,47.91
2022-10-09T13:39:41.467Z,46.75
2022-10-09T13:42:10.175Z,47.16
2022-10-09T13:44:36.705Z,48.12
2022-10-09T13:47:03.345Z,48.85
2022-10-09T13:49:29.989Z,47.44
2022-10-09T13:51:56.558Z,46.35
2022-10-09T13:54:23.839Z,45.92
2022-10-09T13:56:50.516Z,45.82
2022-10-09T13:59:17.153Z,47.14
2022-10-09T14:01:43.767Z,46.70
2022-10-09T14:04:10.294Z,47.34
2022-10-09T14:06:37.027Z,47.28
2022-10-09T14:09:06.936Z,47.17
2022-10-09T14:11:34.220Z,48.50
2022-10-09T14:14:01.051Z,47.31
2022-10-09T14:16:28.745Z,46.38
2022-10-09T14:19:00.549Z,46.52
2022-10-09T14:21:28.060Z,47.46
2022-10-09T14:23:57.018Z,47.02
2022-10-09T14:26:25.687Z,46.91
2022-10-09T14:28:53.087Z,46.67
2022-10-09T14:31:19.992Z,47.41
2022-10-09T14:33:48.054Z,46.90
2022-10-09T14:36:18.668Z,47.05
2022-10-09T14:38:45.934Z,46.42
2022-10-09T14:41:13.909Z,45.57
2022-10-09T14:43:40.658Z,45.77
2022-10-09T14:46:12.076Z,47.43
2022-10-09T14:48:39.818Z,45.94
2022-10-09T14:51:10.699Z,45.61
2022-10-09T14:53:37.246Z,46.77
2022-10-09T14:56:05.923Z,46.14
2022-10-09T14:58:34.087Z,44.43
2022-10-09T15:01:01.010Z,46.08
2022-10-09T15:03:29.357Z,44.53
2022-10-09T15:06:07.108Z,44.44
2022-10-09T15:08:37.214Z,44.48
2022-10-09T15:11:04.408Z,43.61
2022-10-09T15:13:33.577Z,44.05
2022-10-09T15:16:01.286Z,44.25
2022-10-09T15:18:29.205Z,43.70
2022-10-09T15:20:57.624Z,43.11
2022-10-09T15:23:24.360Z,43.29
2022-10-09T15:25:52.698Z,43.15
2022-10-09T15:28:19.794Z,44.24
2022-10-09T15:30:48.541Z,45.04
2022-10-09T15:33:15.133Z,45.60
2022-10-09T15:35:41.795Z,45.93
2022-10-09T15:38:14.700Z,45.39
2022-10-09T15:40:47.105Z,45.32
2022-10-09T15:43:17.375Z,46.38
2022-10-09T15:45:44.742Z,47.51
2022-10-09T15:48:20.482Z,48.21
2022-10-09T15:50:50.428Z,48.86
2022-10-09T15:53:18.532Z,48.77
2022-10-09T15:55:47.958Z,49.11
2022-10-09T15:58:16.030Z,49.08
2022-10-09T16:00:47.448Z,50.48
2022-10-09T16:03:15.628Z,50.69
2022-10-09T16:05:44.523Z,50.42
2022-10-09T16:08:11.816Z,49.30
2022-10-09T16:10:48.422Z,48.67
2022-10-09T16:13:16.106Z,50.86
2022-10-09T16:15:49.677Z,48.89
2022-10-09T16:18:18.299Z,48.35
2022-10-09T16:20:45.024Z,48.96
2022-10-09T16:23:12.815Z,48.88
2022-10-09T16:25:40.887Z,49.54
2022-10-09T16:28:09.574Z,49.38
2022-10-09T16:30:41.621Z,50.02
2022-10-09T16:33:12.480Z,50.38
2022-10-09T16:35:39.749Z,49.60
2022-10-09T16:38:06.424Z,50.14
2022-10-09T16:40:57.298Z,50.43
2022-10-09T16:43:20.113Z,50.54
2022-10-09T16:45:46.825Z,50.94
2022-10-09T16:48:13.626Z,50.70
2022-10-09T16:50:41.750Z,51.49
2022-10-09T16:53:08.441Z,51.21
2022-10-09T16:55:35.193Z,50.87
2022-10-09T16:58:01.719Z,51.26
2022-10-09T17:00:28.391Z,52.18
2022-10-09T17:02:54.951Z,52.61
2022-10-09T17:05:21.622Z,52.63
2022-10-09T17:07:48.472Z,52.77
2022-10-09T17:10:15.341Z,53.01
2022-10-09T17:12:42.270Z,53.97
2022-10-09T17:15:08.994Z,54.31
2022-10-09T17:17:35.617Z,55.34
2022-10-09T17:20:02.295Z,55.93
2022-10-09T17:22:28.841Z,55.91
2022-10-09T17:24:55.430Z,57.03
2022-10-09T17:27:22.008Z,57.69
2022-10-09T17:29:48.531Z,57.95
2022-10-09T17:32:15.090Z,58.07
2022-10-09T17:34:45.635Z,58.23
2022-10-09T17:37:13.095Z,58.58
2022-10-09T17:39:40.047Z,58.30
2022-10-09T17:42:06.629Z,59.23
2022-10-09T17:44:33.232Z,59.07
2022-10-09T17:47:00.783Z,59.88
2022-10-09T17:49:27.664Z,60.76
2022-10-09T17:51:54.559Z,61.79
2022-10-09T17:54:21.225Z,61.67
2022-10-09T17:56:47.908Z,62.58
2022-10-09T17:59:15.636Z,62.23
2022-10-09T18:01:42.389Z,63.34
2022-10-09T18:04:13.861Z,63.82
2022-10-09T18:06:40.376Z,64.03
2022-10-09T18:09:06.945Z,65.19
2022-10-09T18:11:33.629Z,65.86
2022-10-09T18:14:00.523Z,66.76
2022-10-09T18:16:36.102Z,67.09
2022-10-09T18:19:15.243Z,66.86
2022-10-09T18:21:45.558Z,67.42
2022-10-09T18:24:15.767Z,67.23
2022-10-09T18:26:42.728Z,67.45
2022-10-09T18:29:09.351Z,67.50
2022-10-09T18:31:37.769Z,68.70
2022-10-09T18:34:04.434Z,68.19
2022-10-09T18:36:31.764Z,69.05
2022-10-09T18:39:07.526Z,69.41
2022-10-09T18:41:35.361Z,70.33
2022-10-09T18:44:02.919Z,70.05
2022-10-09T18:46:36.032Z,70.68
2022-10-09T18:49:03.147Z,70.75
2022-10-09T18:51:30.733Z,71.01
2022-10-09T18:54:01.777Z,70.86
2022-10-09T18:56:31.653Z,71.83
2022-10-09T18:58:59.355Z,72.42
2022-10-09T19:01:25.987Z,72.55
2022-10-09T19:03:52.605Z,73.06
2022-10-09T19:06:19.524Z,73.91
2022-10-09T19:08:46.724Z,73.84
2022-10-09T19:11:14.351Z,73.18
2022-10-09T19:13:42.911Z,73.40
2022-10-09T19:16:09.840Z,73.64
2022-10-09T19:18:36.949Z,74.09
2022-10-09T19:21:04.003Z,74.50
2022-10-09T19:23:30.640Z,74.41
2022-10-09T19:26:00.209Z,74.22
2022-10-09T19:28:30.478Z,75.88
2022-10-09T19:30:57.616Z,76.17
2022-10-09T19:33:24.252Z,75.92
2022-10-09T19:35:53.894Z,76.06
2022-10-09T19:38:21.418Z,76.52
2022-10-09T19:40:48.888Z,76.53
2022-10-09T19:43:17.151Z,77.45
2022-10-09T19:45:43.908Z,77.70
2022-10-09T19:48:10.541Z,77.87
2022-10-09T19:50:44.135Z,77.52
2022-10-09T19:53:11.712Z,78.12
2022-10-09T19:55:38.815Z,78.46
2022-10-09T19:58:05.413Z,78.52
2022-10-09T20:00:31.989Z,79.20
2022-10-09T20:02:58.691Z,79.50
2022-10-09T20:05:25.275Z,79.29
2022-10-09T20:07:52.268Z,79.42
2022-10-09T20:10:18.930Z,79.69
2022-10-09T20:12:45.605Z,80.42
2022-10-09T20:15:12.138Z,80.08
2022-10-09T20:17:38.677Z,80.08
2022-10-09T20:20:06.080Z,80.61
2022-10-09T20:22:32.621Z,80.22
2022-10-09T20:24:59.183Z,80.53
2022-10-09T20:27:25.712Z,80.58
2022-10-09T20:29:52.975Z,81.05
2022-10-09T20:32:19.796Z,80.84
2022-10-09T20:34:46.462Z,80.98
2022-10-09T20:37:13.077Z,81.86
2022-10-09T20:39:39.660Z,81.66
2022-10-09T20:42:06.335Z,82.01
2022-10-09T20:44:33.047Z,82.08
2022-10-09T20:46:59.738Z,82.35
2022-10-09T20:49:26.509Z,82.34
2022-10-09T20:51:53.205Z,82.95
2022-10-09T20:54:21.510Z,82.51
2022-10-09T20:56:48.668Z,82.91
2022-10-09T20:59:16.935Z,83.07
2022-10-09T21:01:43.920Z,83.51
2022-10-09T21:04:12.129Z,83.92
2022-10-09T21:06:39.282Z,84.03
2022-10-09T21:09:06.728Z,83.89
2022-10-09T21:11:34.821Z,83.86
2022-10-09T21:14:02.489Z,84.66
2022-10-09T21:16:29.473Z,84.35
2022-10-09T21:19:01.434Z,84.18
2022-10-09T21:21:29.290Z,83.93
2022-10-09T21:23:57.791Z,84.30
2022-10-09T21:26:25.739Z,84.13
2022-10-09T21:28:56.771Z,85.17
2022-10-09T21:31:28.366Z,84.77
2022-10-09T21:33:55.600Z,85.17
2022-10-09T21:39:32.741Z,85.49
2022-10-09T21:41:59.288Z,86.01
2022-10-09T21:44:25.928Z,85.23
2022-10-09T21:46:52.489Z,85.59
2022-10-09T21:49:24.232Z,85.54
2022-10-09T21:51:51.228Z,85.43
2022-10-09T21:54:17.831Z,85.45
2022-10-09T21:56:44.514Z,85.31
2022-10-09T21:59:11.299Z,85.51
2022-10-09T22:01:37.899Z,86.13
2022-10-09T22:04:04.827Z,85.99
2022-10-09T22:06:31.397Z,85.70
2022-10-09T22:08:59.829Z,85.54
2022-10-09T22:11:26.893Z,86.33
2022-10-09T22:13:55.361Z,86.11
2022-10-09T22:16:22.100Z,86.35
2022-10-09T22:18:48.782Z,86.10
2022-10-09T22:21:18.209Z,86.61
2022-10-09T22:23:44.964Z,85.97
2022-10-09T22:26:14.545Z,86.23
2022-10-09T22:28:41.439Z,86.53
2022-10-09T22:31:21.519Z,86.46
2022-10-09T22:33:53.061Z,86.58
2022-10-09T22:36:21.389Z,86.61
2022-10-09T22:38:48.393Z,87.10
2022-10-09T22:41:20.729Z,86.94
2022-10-09T22:43:49.812Z,86.31
2022-10-09T22:46:19.297Z,86.03
2022-10-09T22:48:45.948Z,86.31
2022-10-09T22:51:15.368Z,86.75
2022-10-09T22:53:42.635Z,87.76
2022-10-09T22:56:16.588Z,87.22
2022-10-09T22:58:44.480Z,86.68
2022-10-09T23:01:15.094Z,87.35
2022-10-09T23:03:41.667Z,86.60
2022-10-09T23:06:10.503Z,86.48
2022-10-09T23:08:39.052Z,86.74
2022-10-09T23:11:06.439Z,86.25
2022-10-09T23:13:33.156Z,87.07
2022-10-09T23:16:00.918Z,87.77
2022-10-09T23:18:28.348Z,87.62
2022-10-09T23:20:55.082Z,87.93
2022-10-09T23:23:21.768Z,87.38
2022-10-09T23:25:48.380Z,87.12
2022-10-09T23:28:14.916Z,87.27
2022-10-09T23:30:41.520Z,88.28
2022-10-09T23:33:08.032Z,88.11
2022-10-09T23:35:39.987Z,87.78
2022-10-09T23:38:06.579Z,88.42
2022-10-09T23:40:33.165Z,87.98
2022-10-09T23:42:59.701Z,87.87
2022-10-09T23:45:26.342Z,88.24
2022-10-09T23:47:52.993Z,88.51
2022-10-09T23:50:19.536Z,87.94
2022-10-09T23:52:46.143Z,88.22
2022-10-09T23:55:12.769Z,87.59
2022-10-09T23:57:39.361Z,87.30
